sensor_id;sensor_type;location;lat;lon;timestamp;temperature;humidity
3208;DHT22;1616;52.394;9.756;2023-02-26T00:00:12;-0.20;1.00
3208;DHT22;1616;52.394;9.756;2023-02-26T00:02:43;-0.10;1.00
3208;DHT22;1616;52.394;9.756;2023-02-26T00:05:11;-0.20;1.00
3208;DHT22;1616;52.394;9.756;2023-02-26T00:07:37;-0.20;1.00
3208;DHT22;1616;52.394;9.756;2023-02-26T00:10:05;-0.20;1.00
3208;DHT22;1616;52.394;9.756;2023-02-26T00:12:32;-0.30;1.00
3208;DHT22;1616;52.394;9.756;2023-02-26T00:14:58;-0.30;1.00
3208;DHT22;1616;52.394;9.756;2023-02-26T00:17:49;-0.20;1.00
3208;DHT22;1616;52.394;9.756;2023-02-26T00:20:17;-0.20;1.00
3208;DHT22;1616;52.394;9.756;2023-02-26T00:22:43;-0.20;1.00
3208;DHT22;1616;52.394;9.756;2023-02-26T00:25:09;-0.10;1.00
3208;DHT22;1616;52.394;9.756;2023-02-26T00:27:35;-0.10;1.00
3208;DHT22;1616;52.394;9.756;2023-02-26T00:30:04;-0.10;1.00
3208;DHT22;1616;52.394;9.756;2023-02-26T00:32:30;-0.10;1.00
3208;DHT22;1616;52.394;9.756;2023-02-26T00:34:57;0.00;1.00
3208;DHT22;1616;52.394;9.756;2023-02-26T00:37:37;0.10;1.00
3208;DHT22;1616;52.394;9.756;2023-02-26T00:40:28;0.00;1.00
3208;DHT22;1616;52.394;9.756;2023-02-26T00:42:55;0.00;1.00
3208;DHT22;1616;52.394;9.756;2023-02-26T00:45:21;0.00;1.00
3208;DHT22;1616;52.394;9.756;2023-02-26T00:48:21;0.00;1.00
3208;DHT22;1616;52.394;9.756;2023-02-26T00:51:09;0.00;1.00
3208;DHT22;1616;52.394;9.756;2023-02-26T00:54:15;0.00;1.00
3208;DHT22;1616;52.394;9.756;2023-02-26T00:56:42;0.00;1.00
3208;DHT22;1616;52.394;9.756;2023-02-26T00:59:08;0.10;1.00
3208;DHT22;1616;52.394;9.756;2023-02-26T01:01:33;0.10;1.00
3208;DHT22;1616;52.394;9.756;2023-02-26T01:03:59;0.20;1.00
3208;DHT22;1616;52.394;9.756;2023-02-26T01:06:27;0.20;1.00
3208;DHT22;1616;52.394;9.756;2023-02-26T01:11:34;0.30;1.00
3208;DHT22;1616;52.394;9.756;2023-02-26T01:14:00;0.30;1.00
3208;DHT22;1616;52.394;9.756;2023-02-26T01:16:27;0.30;1.00
3208;DHT22;1616;52.394;9.756;2023-02-26T01:19:02;0.40;1.00
3208;DHT22;1616;52.394;9.756;2023-02-26T01:21:35;0.40;1.00
3208;DHT22;1616;52.394;9.756;2023-02-26T01:24:05;0.40;1.00
3208;DHT22;1616;52.394;9.756;2023-02-26T01:26:31;0.50;1.00
3208;DHT22;1616;52.394;9.756;2023-02-26T01:28:57;0.50;1.00
3208;DHT22;1616;52.394;9.756;2023-02-26T01:31:39;0.50;1.00
3208;DHT22;1616;52.394;9.756;2023-02-26T01:34:17;0.50;1.00
3208;DHT22;1616;52.394;9.756;2023-02-26T01:36:51;0.50;1.00
3208;DHT22;1616;52.394;9.756;2023-02-26T01:39:31;0.50;1.00
3208;DHT22;1616;52.394;9.756;2023-02-26T01:44:49;0.50;1.00
3208;DHT22;1616;52.394;9.756;2023-02-26T01:47:28;0.50;1.00
3208;DHT22;1616;52.394;9.756;2023-02-26T01:49:55;0.50;1.00
3208;DHT22;1616;52.394;9.756;2023-02-26T01:55:23;0.50;1.00
3208;DHT22;1616;52.394;9.756;2023-02-26T01:57:51;0.60;1.00
3208;DHT22;1616;52.394;9.756;2023-02-26T02:00:19;0.50;1.00
3208;DHT22;1616;52.394;9.756;2023-02-26T02:02:45;0.60;1.00
3208;DHT22;1616;52.394;9.756;2023-02-26T02:05:17;0.60;1.00
3208;DHT22;1616;52.394;9.756;2023-02-26T02:07:45;0.60;1.00
3208;DHT22;1616;52.394;9.756;2023-02-26T02:10:11;0.60;1.00
3208;DHT22;1616;52.394;9.756;2023-02-26T02:12:41;0.60;1.00
3208;DHT22;1616;52.394;9.756;2023-02-26T02:15:12;0.70;1.00
3208;DHT22;1616;52.394;9.756;2023-02-26T02:18:23;0.70;1.00
3208;DHT22;1616;52.394;9.756;2023-02-26T02:21:10;0.70;1.00
3208;DHT22;1616;52.394;9.756;2023-02-26T02:23:45;0.70;1.00
3208;DHT22;1616;52.394;9.756;2023-02-26T02:26:36;0.80;1.00
3208;DHT22;1616;52.394;9.756;2023-02-26T02:29:33;0.80;1.00
3208;DHT22;1616;52.394;9.756;2023-02-26T02:32:15;0.80;1.00
3208;DHT22;1616;52.394;9.756;2023-02-26T02:34:48;0.90;1.00
3208;DHT22;1616;52.394;9.756;2023-02-26T02:37:32;0.80;1.00
3208;DHT22;1616;52.394;9.756;2023-02-26T02:40:12;0.80;1.00
3208;DHT22;1616;52.394;9.756;2023-02-26T02:42:52;0.80;1.00
3208;DHT22;1616;52.394;9.756;2023-02-26T02:45:46;0.80;1.00
3208;DHT22;1616;52.394;9.756;2023-02-26T02:50:56;0.80;1.00
3208;DHT22;1616;52.394;9.756;2023-02-26T02:53:29;0.80;1.00
3208;DHT22;1616;52.394;9.756;2023-02-26T02:56:19;0.80;1.00
3208;DHT22;1616;52.394;9.756;2023-02-26T02:58:51;0.80;1.00
3208;DHT22;1616;52.394;9.756;2023-02-26T03:01:20;0.80;1.00
3208;DHT22;1616;52.394;9.756;2023-02-26T03:04:14;0.80;1.00
3208;DHT22;1616;52.394;9.756;2023-02-26T03:06:41;0.80;1.00
3208;DHT22;1616;52.394;9.756;2023-02-26T03:09:09;0.80;1.00
3208;DHT22;1616;52.394;9.756;2023-02-26T03:11:36;0.80;1.00
3208;DHT22;1616;52.394;9.756;2023-02-26T03:14:02;0.70;1.00
3208;DHT22;1616;52.394;9.756;2023-02-26T03:19:27;0.70;1.00
3208;DHT22;1616;52.394;9.756;2023-02-26T03:24:57;0.70;1.00
3208;DHT22;1616;52.394;9.756;2023-02-26T03:27:30;0.70;1.00
3208;DHT22;1616;52.394;9.756;2023-02-26T03:30:05;0.70;1.00
3208;DHT22;1616;52.394;9.756;2023-02-26T03:33:12;0.80;1.00
3208;DHT22;1616;52.394;9.756;2023-02-26T03:35:50;0.70;1.00
3208;DHT22;1616;52.394;9.756;2023-02-26T03:38:46;0.80;1.00
3208;DHT22;1616;52.394;9.756;2023-02-26T03:41:16;0.80;1.00
3208;DHT22;1616;52.394;9.756;2023-02-26T03:44:23;0.80;1.00
3208;DHT22;1616;52.394;9.756;2023-02-26T03:46:55;0.80;1.00
3208;DHT22;1616;52.394;9.756;2023-02-26T03:49:26;0.80;1.00
3208;DHT22;1616;52.394;9.756;2023-02-26T03:51:54;0.80;1.00
3208;DHT22;1616;52.394;9.756;2023-02-26T03:54:28;0.80;1.00
3208;DHT22;1616;52.394;9.756;2023-02-26T03:56:55;0.80;1.00
3208;DHT22;1616;52.394;9.756;2023-02-26T03:59:21;0.80;1.00
3208;DHT22;1616;52.394;9.756;2023-02-26T04:02:03;0.90;1.00
3208;DHT22;1616;52.394;9.756;2023-02-26T04:04:47;0.90;1.00
3208;DHT22;1616;52.394;9.756;2023-02-26T04:07:15;0.90;1.00
3208;DHT22;1616;52.394;9.756;2023-02-26T04:09:43;1.00;1.00
3208;DHT22;1616;52.394;9.756;2023-02-26T04:12:10;0.90;1.00
3208;DHT22;1616;52.394;9.756;2023-02-26T04:14:36;1.00;1.00
3208;DHT22;1616;52.394;9.756;2023-02-26T04:17:02;1.00;1.00
3208;DHT22;1616;52.394;9.756;2023-02-26T04:19:28;1.00;1.00
3208;DHT22;1616;52.394;9.756;2023-02-26T04:21:53;1.00;1.00
3208;DHT22;1616;52.394;9.756;2023-02-26T04:24:19;1.00;1.00
3208;DHT22;1616;52.394;9.756;2023-02-26T04:26:45;1.00;1.00
3208;DHT22;1616;52.394;9.756;2023-02-26T04:29:11;1.10;1.00
3208;DHT22;1616;52.394;9.756;2023-02-26T04:31:36;1.10;1.00
3208;DHT22;1616;52.394;9.756;2023-02-26T04:34:02;1.10;1.00
3208;DHT22;1616;52.394;9.756;2023-02-26T04:36:28;1.10;1.00
3208;DHT22;1616;52.394;9.756;2023-02-26T04:38:54;1.10;1.00
3208;DHT22;1616;52.394;9.756;2023-02-26T04:41:20;1.10;1.00
3208;DHT22;1616;52.394;9.756;2023-02-26T04:43:46;1.10;1.00
3208;DHT22;1616;52.394;9.756;2023-02-26T04:46:11;1.10;1.00
3208;DHT22;1616;52.394;9.756;2023-02-26T04:48:37;1.10;1.00
3208;DHT22;1616;52.394;9.756;2023-02-26T04:51:03;1.00;1.00
3208;DHT22;1616;52.394;9.756;2023-02-26T04:53:28;1.00;1.00
3208;DHT22;1616;52.394;9.756;2023-02-26T04:55:54;1.10;1.00
3208;DHT22;1616;52.394;9.756;2023-02-26T04:58:19;1.10;1.00
3208;DHT22;1616;52.394;9.756;2023-02-26T05:00:50;1.10;1.00
3208;DHT22;1616;52.394;9.756;2023-02-26T05:03:16;1.10;1.00
3208;DHT22;1616;52.394;9.756;2023-02-26T05:05:42;1.10;1.00
3208;DHT22;1616;52.394;9.756;2023-02-26T05:08:08;1.10;1.00
3208;DHT22;1616;52.394;9.756;2023-02-26T05:10:34;1.00;1.00
3208;DHT22;1616;52.394;9.756;2023-02-26T05:13:00;1.10;1.00
3208;DHT22;1616;52.394;9.756;2023-02-26T05:15:26;1.10;1.00
3208;DHT22;1616;52.394;9.756;2023-02-26T05:17:51;1.10;1.00
3208;DHT22;1616;52.394;9.756;2023-02-26T05:20:17;1.10;1.00
3208;DHT22;1616;52.394;9.756;2023-02-26T05:22:43;1.00;1.00
3208;DHT22;1616;52.394;9.756;2023-02-26T05:25:09;1.00;1.00
3208;DHT22;1616;52.394;9.756;2023-02-26T05:27:37;0.90;1.00
3208;DHT22;1616;52.394;9.756;2023-02-26T05:30:05;0.90;1.00
3208;DHT22;1616;52.394;9.756;2023-02-26T05:32:31;0.70;1.00
3208;DHT22;1616;52.394;9.756;2023-02-26T05:34:57;0.70;1.00
3208;DHT22;1616;52.394;9.756;2023-02-26T05:37:24;0.60;1.00
3208;DHT22;1616;52.394;9.756;2023-02-26T05:39:50;0.50;1.00
3208;DHT22;1616;52.394;9.756;2023-02-26T05:42:15;0.40;1.00
3208;DHT22;1616;52.394;9.756;2023-02-26T05:44:41;0.40;1.00
3208;DHT22;1616;52.394;9.756;2023-02-26T05:47:06;0.20;1.00
3208;DHT22;1616;52.394;9.756;2023-02-26T05:49:32;0.20;1.00
3208;DHT22;1616;52.394;9.756;2023-02-26T05:51:57;0.10;1.00
3208;DHT22;1616;52.394;9.756;2023-02-26T05:54:23;0.10;1.00
3208;DHT22;1616;52.394;9.756;2023-02-26T05:56:49;0.00;1.00
3208;DHT22;1616;52.394;9.756;2023-02-26T05:59:15;0.00;1.00
3208;DHT22;1616;52.394;9.756;2023-02-26T06:01:41;-0.10;1.00
3208;DHT22;1616;52.394;9.756;2023-02-26T06:04:07;-0.10;1.00
3208;DHT22;1616;52.394;9.756;2023-02-26T06:06:33;-0.20;1.00
3208;DHT22;1616;52.394;9.756;2023-02-26T06:08:59;-0.20;1.00
3208;DHT22;1616;52.394;9.756;2023-02-26T06:11:29;-0.20;1.00
3208;DHT22;1616;52.394;9.756;2023-02-26T06:13:55;-0.30;1.00
3208;DHT22;1616;52.394;9.756;2023-02-26T06:16:22;-0.30;1.00
3208;DHT22;1616;52.394;9.756;2023-02-26T06:18:47;-0.30;1.00
3208;DHT22;1616;52.394;9.756;2023-02-26T06:21:14;-0.30;1.00
3208;DHT22;1616;52.394;9.756;2023-02-26T06:23:40;-0.40;1.00
3208;DHT22;1616;52.394;9.756;2023-02-26T06:26:06;-0.40;1.00
3208;DHT22;1616;52.394;9.756;2023-02-26T06:28:32;-0.40;1.00
3208;DHT22;1616;52.394;9.756;2023-02-26T06:30:58;-0.40;1.00
3208;DHT22;1616;52.394;9.756;2023-02-26T06:33:25;-0.40;1.00
3208;DHT22;1616;52.394;9.756;2023-02-26T06:35:51;-0.40;1.00
3208;DHT22;1616;52.394;9.756;2023-02-26T06:38:17;-0.40;1.00
3208;DHT22;1616;52.394;9.756;2023-02-26T06:40:45;-0.40;1.00
3208;DHT22;1616;52.394;9.756;2023-02-26T06:43:11;-0.30;1.00
3208;DHT22;1616;52.394;9.756;2023-02-26T06:45:37;-0.30;1.00
3208;DHT22;1616;52.394;9.756;2023-02-26T06:48:02;-0.30;1.00
3208;DHT22;1616;52.394;9.756;2023-02-26T06:50:28;-0.30;1.00
3208;DHT22;1616;52.394;9.756;2023-02-26T06:52:54;-0.30;1.00
3208;DHT22;1616;52.394;9.756;2023-02-26T06:55:19;-0.20;1.00
3208;DHT22;1616;52.394;9.756;2023-02-26T06:57:46;-0.20;1.00
3208;DHT22;1616;52.394;9.756;2023-02-26T07:00:13;-0.10;1.00
3208;DHT22;1616;52.394;9.756;2023-02-26T07:02:39;-0.10;1.00
3208;DHT22;1616;52.394;9.756;2023-02-26T07:05:05;-0.10;1.00
3208;DHT22;1616;52.394;9.756;2023-02-26T07:07:31;0.00;1.00
3208;DHT22;1616;52.394;9.756;2023-02-26T07:09:56;0.00;1.00
3208;DHT22;1616;52.394;9.756;2023-02-26T07:12:22;0.00;1.00
3208;DHT22;1616;52.394;9.756;2023-02-26T07:14:47;0.10;1.00
3208;DHT22;1616;52.394;9.756;2023-02-26T07:17:13;0.10;1.00
3208;DHT22;1616;52.394;9.756;2023-02-26T07:19:48;0.50;1.00
3208;DHT22;1616;52.394;9.756;2023-02-26T07:22:15;1.20;1.00
3208;DHT22;1616;52.394;9.756;2023-02-26T07:24:41;1.80;1.00
3208;DHT22;1616;52.394;9.756;2023-02-26T07:27:07;2.20;1.00
3208;DHT22;1616;52.394;9.756;2023-02-26T07:29:35;2.40;1.00
3208;DHT22;1616;52.394;9.756;2023-02-26T07:32:01;2.50;1.00
3208;DHT22;1616;52.394;9.756;2023-02-26T07:34:27;2.60;1.00
3208;DHT22;1616;52.394;9.756;2023-02-26T07:36:52;2.70;1.00
3208;DHT22;1616;52.394;9.756;2023-02-26T07:39:19;2.80;1.00
3208;DHT22;1616;52.394;9.756;2023-02-26T07:41:45;2.90;1.00
3208;DHT22;1616;52.394;9.756;2023-02-26T07:44:11;3.30;1.00
3208;DHT22;1616;52.394;9.756;2023-02-26T07:46:37;4.30;1.00
3208;DHT22;1616;52.394;9.756;2023-02-26T07:49:02;5.50;1.00
3208;DHT22;1616;52.394;9.756;2023-02-26T07:51:28;6.70;1.00
3208;DHT22;1616;52.394;9.756;2023-02-26T07:53:53;7.80;1.00
3208;DHT22;1616;52.394;9.756;2023-02-26T07:56:19;8.70;1.00
3208;DHT22;1616;52.394;9.756;2023-02-26T07:58:46;9.60;1.00
3208;DHT22;1616;52.394;9.756;2023-02-26T08:01:11;10.40;1.00
3208;DHT22;1616;52.394;9.756;2023-02-26T08:03:37;11.00;1.00
3208;DHT22;1616;52.394;9.756;2023-02-26T08:06:03;11.50;1.00
3208;DHT22;1616;52.394;9.756;2023-02-26T08:08:30;12.00;1.00
3208;DHT22;1616;52.394;9.756;2023-02-26T08:10:58;12.40;1.00
3208;DHT22;1616;52.394;9.756;2023-02-26T08:13:24;12.80;1.00
3208;DHT22;1616;52.394;9.756;2023-02-26T08:15:49;13.20;1.00
3208;DHT22;1616;52.394;9.756;2023-02-26T08:18:15;13.60;1.00
3208;DHT22;1616;52.394;9.756;2023-02-26T08:20:41;14.10;1.00
3208;DHT22;1616;52.394;9.756;2023-02-26T08:23:06;14.50;1.00
3208;DHT22;1616;52.394;9.756;2023-02-26T08:25:32;14.80;1.00
3208;DHT22;1616;52.394;9.756;2023-02-26T08:27:57;15.10;1.00
3208;DHT22;1616;52.394;9.756;2023-02-26T08:30:23;15.40;1.00
3208;DHT22;1616;52.394;9.756;2023-02-26T08:32:49;15.50;1.00
3208;DHT22;1616;52.394;9.756;2023-02-26T08:35:16;15.70;1.00
3208;DHT22;1616;52.394;9.756;2023-02-26T08:37:42;15.80;1.00
3208;DHT22;1616;52.394;9.756;2023-02-26T08:40:09;16.00;1.00
3208;DHT22;1616;52.394;9.756;2023-02-26T08:42:35;16.20;1.00
3208;DHT22;1616;52.394;9.756;2023-02-26T08:45:02;16.30;1.00
3208;DHT22;1616;52.394;9.756;2023-02-26T08:47:28;16.40;1.00
3208;DHT22;1616;52.394;9.756;2023-02-26T08:49:54;16.40;1.00
3208;DHT22;1616;52.394;9.756;2023-02-26T08:52:20;16.60;1.00
3208;DHT22;1616;52.394;9.756;2023-02-26T08:54:46;16.70;1.00
3208;DHT22;1616;52.394;9.756;2023-02-26T08:57:11;16.80;1.00
3208;DHT22;1616;52.394;9.756;2023-02-26T08:59:37;16.80;1.00
3208;DHT22;1616;52.394;9.756;2023-02-26T09:02:03;16.90;1.00
3208;DHT22;1616;52.394;9.756;2023-02-26T09:04:29;17.10;1.00
3208;DHT22;1616;52.394;9.756;2023-02-26T09:06:54;17.20;1.00
3208;DHT22;1616;52.394;9.756;2023-02-26T09:09:20;17.40;1.00
3208;DHT22;1616;52.394;9.756;2023-02-26T09:11:46;17.30;1.00
3208;DHT22;1616;52.394;9.756;2023-02-26T09:14:12;17.30;1.00
3208;DHT22;1616;52.394;9.756;2023-02-26T09:16:38;17.30;1.00
3208;DHT22;1616;52.394;9.756;2023-02-26T09:19:04;17.40;1.00
3208;DHT22;1616;52.394;9.756;2023-02-26T09:21:31;17.60;1.00
3208;DHT22;1616;52.394;9.756;2023-02-26T09:23:57;17.70;1.00
3208;DHT22;1616;52.394;9.756;2023-02-26T09:26:22;17.80;1.00
3208;DHT22;1616;52.394;9.756;2023-02-26T09:28:48;18.00;1.00
3208;DHT22;1616;52.394;9.756;2023-02-26T09:31:13;18.10;1.00
3208;DHT22;1616;52.394;9.756;2023-02-26T09:33:39;18.40;1.00
3208;DHT22;1616;52.394;9.756;2023-02-26T09:36:05;18.50;1.00
3208;DHT22;1616;52.394;9.756;2023-02-26T09:38:31;18.60;1.00
3208;DHT22;1616;52.394;9.756;2023-02-26T09:41:06;18.70;1.00
3208;DHT22;1616;52.394;9.756;2023-02-26T09:43:51;18.70;1.00
3208;DHT22;1616;52.394;9.756;2023-02-26T09:49:30;18.80;1.00
3208;DHT22;1616;52.394;9.756;2023-02-26T09:52:16;18.80;1.00
3208;DHT22;1616;52.394;9.756;2023-02-26T09:54:47;18.70;1.00
3208;DHT22;1616;52.394;9.756;2023-02-26T09:57:29;18.70;1.00
3208;DHT22;1616;52.394;9.756;2023-02-26T09:59:56;18.80;1.00
3208;DHT22;1616;52.394;9.756;2023-02-26T10:02:48;18.90;1.00
3208;DHT22;1616;52.394;9.756;2023-02-26T10:05:19;19.00;1.00
3208;DHT22;1616;52.394;9.756;2023-02-26T10:07:49;18.90;1.00
3208;DHT22;1616;52.394;9.756;2023-02-26T10:10:30;18.90;1.00
3208;DHT22;1616;52.394;9.756;2023-02-26T10:12:57;19.10;1.00
3208;DHT22;1616;52.394;9.756;2023-02-26T10:15:34;19.20;1.00
3208;DHT22;1616;52.394;9.756;2023-02-26T10:20:36;19.40;1.00
3208;DHT22;1616;52.394;9.756;2023-02-26T10:23:18;19.40;1.00
3208;DHT22;1616;52.394;9.756;2023-02-26T10:34:37;19.90;1.00
3208;DHT22;1616;52.394;9.756;2023-02-26T10:39:52;20.00;1.00
3208;DHT22;1616;52.394;9.756;2023-02-26T10:42:26;20.10;1.00
3208;DHT22;1616;52.394;9.756;2023-02-26T10:50:19;18.80;1.00
3208;DHT22;1616;52.394;9.756;2023-02-26T10:52:46;18.80;1.00
3208;DHT22;1616;52.394;9.756;2023-02-26T10:55:29;18.80;1.00
3208;DHT22;1616;52.394;9.756;2023-02-26T10:58:17;19.00;1.00
3208;DHT22;1616;52.394;9.756;2023-02-26T11:00:47;19.40;1.00
3208;DHT22;1616;52.394;9.756;2023-02-26T11:03:18;19.70;1.00
3208;DHT22;1616;52.394;9.756;2023-02-26T11:05:44;19.80;1.00
3208;DHT22;1616;52.394;9.756;2023-02-26T11:08:23;20.00;1.00
3208;DHT22;1616;52.394;9.756;2023-02-26T11:13:16;20.20;1.00
3208;DHT22;1616;52.394;9.756;2023-02-26T11:15:46;20.10;1.00
3208;DHT22;1616;52.394;9.756;2023-02-26T11:18:16;20.30;1.00
3208;DHT22;1616;52.394;9.756;2023-02-26T11:20:45;20.10;1.00
3208;DHT22;1616;52.394;9.756;2023-02-26T11:23:13;20.10;1.00
3208;DHT22;1616;52.394;9.756;2023-02-26T11:25:41;20.00;1.00
3208;DHT22;1616;52.394;9.756;2023-02-26T11:28:20;19.90;1.00
3208;DHT22;1616;52.394;9.756;2023-02-26T11:30:46;19.80;1.00
3208;DHT22;1616;52.394;9.756;2023-02-26T11:33:21;19.40;1.00
3208;DHT22;1616;52.394;9.756;2023-02-26T11:35:48;19.10;1.00
3208;DHT22;1616;52.394;9.756;2023-02-26T11:38:21;18.90;1.00
3208;DHT22;1616;52.394;9.756;2023-02-26T11:40:52;18.70;1.00
3208;DHT22;1616;52.394;9.756;2023-02-26T11:43:20;18.80;1.00
3208;DHT22;1616;52.394;9.756;2023-02-26T11:45:51;18.70;1.00
3208;DHT22;1616;52.394;9.756;2023-02-26T11:51:02;18.00;1.00
3208;DHT22;1616;52.394;9.756;2023-02-26T11:53:54;17.90;1.00
3208;DHT22;1616;52.394;9.756;2023-02-26T11:58:54;17.90;1.00
3208;DHT22;1616;52.394;9.756;2023-02-26T12:01:20;17.40;1.00
3208;DHT22;1616;52.394;9.756;2023-02-26T12:03:51;16.60;1.00
3208;DHT22;1616;52.394;9.756;2023-02-26T12:06:20;15.80;1.00
3208;DHT22;1616;52.394;9.756;2023-02-26T12:08:46;15.20;1.00
3208;DHT22;1616;52.394;9.756;2023-02-26T12:16:54;15.40;1.00
3208;DHT22;1616;52.394;9.756;2023-02-26T12:33:36;16.50;1.00
3208;DHT22;1616;52.394;9.756;2023-02-26T12:36:18;16.70;1.00
3208;DHT22;1616;52.394;9.756;2023-02-26T12:38:54;16.90;1.00
3208;DHT22;1616;52.394;9.756;2023-02-26T12:41:48;16.80;1.00
3208;DHT22;1616;52.394;9.756;2023-02-26T12:47:19;16.90;1.00
3208;DHT22;1616;52.394;9.756;2023-02-26T12:52:40;16.60;1.00
3208;DHT22;1616;52.394;9.756;2023-02-26T12:55:22;16.30;1.00
3208;DHT22;1616;52.394;9.756;2023-02-26T12:58:20;16.20;1.00
3208;DHT22;1616;52.394;9.756;2023-02-26T13:01:18;16.10;1.00
3208;DHT22;1616;52.394;9.756;2023-02-26T13:14:48;14.10;1.00
3208;DHT22;1616;52.394;9.756;2023-02-26T13:20:16;13.10;1.00
3208;DHT22;1616;52.394;9.756;2023-02-26T13:23:09;12.40;1.00
3208;DHT22;1616;52.394;9.756;2023-02-26T13:25:48;11.90;1.00
3208;DHT22;1616;52.394;9.756;2023-02-26T13:31:11;10.70;1.00
3208;DHT22;1616;52.394;9.756;2023-02-26T13:33:38;10.10;1.00
3208;DHT22;1616;52.394;9.756;2023-02-26T13:36:06;9.70;1.00
3208;DHT22;1616;52.394;9.756;2023-02-26T13:41:19;9.00;1.00
3208;DHT22;1616;52.394;9.756;2023-02-26T13:44:12;8.70;1.00
3208;DHT22;1616;52.394;9.756;2023-02-26T13:46:55;8.40;1.00
3208;DHT22;1616;52.394;9.756;2023-02-26T13:51:52;7.90;1.00
3208;DHT22;1616;52.394;9.756;2023-02-26T13:56:57;7.50;1.00
3208;DHT22;1616;52.394;9.756;2023-02-26T13:59:34;7.30;1.00
3208;DHT22;1616;52.394;9.756;2023-02-26T14:02:35;7.20;1.00
3208;DHT22;1616;52.394;9.756;2023-02-26T14:05:08;7.10;1.00
3208;DHT22;1616;52.394;9.756;2023-02-26T14:07:53;7.00;1.00
3208;DHT22;1616;52.394;9.756;2023-02-26T14:10:50;6.90;1.00
3208;DHT22;1616;52.394;9.756;2023-02-26T14:13:21;6.80;1.00
3208;DHT22;1616;52.394;9.756;2023-02-26T14:24:05;6.60;1.00
3208;DHT22;1616;52.394;9.756;2023-02-26T14:26:33;6.60;1.00
3208;DHT22;1616;52.394;9.756;2023-02-26T14:29:14;6.50;1.00
3208;DHT22;1616;52.394;9.756;2023-02-26T14:31:52;6.50;1.00
3208;DHT22;1616;52.394;9.756;2023-02-26T14:34:25;6.40;1.00
3208;DHT22;1616;52.394;9.756;2023-02-26T14:36:53;6.30;1.00
3208;DHT22;1616;52.394;9.756;2023-02-26T14:39:25;6.40;1.00
3208;DHT22;1616;52.394;9.756;2023-02-26T14:42:05;6.30;1.00
3208;DHT22;1616;52.394;9.756;2023-02-26T14:44:44;6.30;1.00
3208;DHT22;1616;52.394;9.756;2023-02-26T14:47:11;6.30;1.00
3208;DHT22;1616;52.394;9.756;2023-02-26T14:49:44;6.20;1.00
3208;DHT22;1616;52.394;9.756;2023-02-26T14:57:45;6.20;1.00
3208;DHT22;1616;52.394;9.756;2023-02-26T15:08:41;6.30;1.00
3208;DHT22;1616;52.394;9.756;2023-02-26T15:14:19;6.30;1.00
3208;DHT22;1616;52.394;9.756;2023-02-26T15:16:53;6.30;1.00
3208;DHT22;1616;52.394;9.756;2023-02-26T15:22:00;6.30;1.00
3208;DHT22;1616;52.394;9.756;2023-02-26T15:24:28;6.20;1.00
3208;DHT22;1616;52.394;9.756;2023-02-26T15:26:59;6.20;1.00
3208;DHT22;1616;52.394;9.756;2023-02-26T15:29:29;6.20;1.00
3208;DHT22;1616;52.394;9.756;2023-02-26T15:32:05;6.10;1.00
3208;DHT22;1616;52.394;9.756;2023-02-26T15:34:31;6.10;1.00
3208;DHT22;1616;52.394;9.756;2023-02-26T15:36:58;6.00;1.00
3208;DHT22;1616;52.394;9.756;2023-02-26T15:39:25;6.00;1.00
3208;DHT22;1616;52.394;9.756;2023-02-26T15:41:53;5.90;1.00
3208;DHT22;1616;52.394;9.756;2023-02-26T15:44:22;6.00;1.00
3208;DHT22;1616;52.394;9.756;2023-02-26T15:46:55;6.00;1.00
3208;DHT22;1616;52.394;9.756;2023-02-26T15:49:38;5.90;1.00
3208;DHT22;1616;52.394;9.756;2023-02-26T15:52:07;5.90;1.00
3208;DHT22;1616;52.394;9.756;2023-02-26T15:55:01;5.80;1.00
3208;DHT22;1616;52.394;9.756;2023-02-26T15:57:27;5.70;1.00
3208;DHT22;1616;52.394;9.756;2023-02-26T16:00:04;5.70;1.00
3208;DHT22;1616;52.394;9.756;2023-02-26T16:02:31;5.60;1.00
3208;DHT22;1616;52.394;9.756;2023-02-26T16:04:57;5.50;1.00
3208;DHT22;1616;52.394;9.756;2023-02-26T16:07:23;5.50;1.00
3208;DHT22;1616;52.394;9.756;2023-02-26T16:09:52;5.50;1.00
3208;DHT22;1616;52.394;9.756;2023-02-26T16:12:21;5.40;1.00
3208;DHT22;1616;52.394;9.756;2023-02-26T16:15:00;4.70;1.00
3208;DHT22;1616;52.394;9.756;2023-02-26T16:17:34;5.40;1.00
3208;DHT22;1616;52.394;9.756;2023-02-26T16:20:10;5.20;1.00
3208;DHT22;1616;52.394;9.756;2023-02-26T16:22:40;5.20;1.00
3208;DHT22;1616;52.394;9.756;2023-02-26T16:25:19;5.10;1.00
3208;DHT22;1616;52.394;9.756;2023-02-26T16:28:02;5.10;1.00
3208;DHT22;1616;52.394;9.756;2023-02-26T16:30:35;5.10;1.00
3208;DHT22;1616;52.394;9.756;2023-02-26T16:33:03;5.10;1.00
3208;DHT22;1616;52.394;9.756;2023-02-26T16:35:37;5.10;1.00
3208;DHT22;1616;52.394;9.756;2023-02-26T16:38:41;5.20;1.00
3208;DHT22;1616;52.394;9.756;2023-02-26T16:41:08;5.20;1.00
3208;DHT22;1616;52.394;9.756;2023-02-26T16:46:12;5.10;1.00
3208;DHT22;1616;52.394;9.756;2023-02-26T16:51:14;5.00;1.00
3208;DHT22;1616;52.394;9.756;2023-02-26T16:53:47;4.90;1.00
3208;DHT22;1616;52.394;9.756;2023-02-26T16:56:19;4.90;1.00
3208;DHT22;1616;52.394;9.756;2023-02-26T16:58:57;4.80;1.00
3208;DHT22;1616;52.394;9.756;2023-02-26T17:01:27;4.70;1.00
3208;DHT22;1616;52.394;9.756;2023-02-26T17:03:59;4.70;1.00
3208;DHT22;1616;52.394;9.756;2023-02-26T17:06:27;4.60;1.00
3208;DHT22;1616;52.394;9.756;2023-02-26T17:09:00;4.60;1.00
3208;DHT22;1616;52.394;9.756;2023-02-26T17:11:27;4.70;1.00
3208;DHT22;1616;52.394;9.756;2023-02-26T17:14:20;4.70;1.00
3208;DHT22;1616;52.394;9.756;2023-02-26T17:16:48;4.70;1.00
3208;DHT22;1616;52.394;9.756;2023-02-26T17:19:14;4.60;1.00
3208;DHT22;1616;52.394;9.756;2023-02-26T17:21:46;4.60;1.00
3208;DHT22;1616;52.394;9.756;2023-02-26T17:24:19;4.50;1.00
3208;DHT22;1616;52.394;9.756;2023-02-26T17:26:46;4.50;1.00
3208;DHT22;1616;52.394;9.756;2023-02-26T17:29:18;4.40;1.00
3208;DHT22;1616;52.394;9.756;2023-02-26T17:31:45;4.40;1.00
3208;DHT22;1616;52.394;9.756;2023-02-26T17:34:11;3.90;1.00
3208;DHT22;1616;52.394;9.756;2023-02-26T17:36:37;4.20;1.00
3208;DHT22;1616;52.394;9.756;2023-02-26T17:39:03;4.20;1.00
3208;DHT22;1616;52.394;9.756;2023-02-26T17:41:28;4.20;1.00
3208;DHT22;1616;52.394;9.756;2023-02-26T17:43:55;4.20;1.00
3208;DHT22;1616;52.394;9.756;2023-02-26T17:46:21;4.20;1.00
3208;DHT22;1616;52.394;9.756;2023-02-26T17:48:47;4.20;1.00
3208;DHT22;1616;52.394;9.756;2023-02-26T17:51:13;4.20;1.00
3208;DHT22;1616;52.394;9.756;2023-02-26T17:53:40;4.20;1.00
3208;DHT22;1616;52.394;9.756;2023-02-26T17:56:13;4.20;1.00
3208;DHT22;1616;52.394;9.756;2023-02-26T17:58:40;4.20;1.00
3208;DHT22;1616;52.394;9.756;2023-02-26T18:01:06;4.20;1.00
3208;DHT22;1616;52.394;9.756;2023-02-26T18:03:33;4.20;1.00
3208;DHT22;1616;52.394;9.756;2023-02-26T18:05:59;4.20;1.00
3208;DHT22;1616;52.394;9.756;2023-02-26T18:08:30;4.20;1.00
3208;DHT22;1616;52.394;9.756;2023-02-26T18:10:57;4.10;1.00
3208;DHT22;1616;52.394;9.756;2023-02-26T18:13:23;4.10;1.00
3208;DHT22;1616;52.394;9.756;2023-02-26T18:15:50;4.10;1.00
3208;DHT22;1616;52.394;9.756;2023-02-26T18:18:16;4.10;1.00
3208;DHT22;1616;52.394;9.756;2023-02-26T18:20:43;4.00;1.00
3208;DHT22;1616;52.394;9.756;2023-02-26T18:23:10;4.00;1.00
3208;DHT22;1616;52.394;9.756;2023-02-26T18:25:39;3.80;1.00
3208;DHT22;1616;52.394;9.756;2023-02-26T18:28:08;3.90;1.00
3208;DHT22;1616;52.394;9.756;2023-02-26T18:30:35;3.80;1.00
3208;DHT22;1616;52.394;9.756;2023-02-26T18:33:02;3.70;1.00
3208;DHT22;1616;52.394;9.756;2023-02-26T18:35:29;3.70;1.00
3208;DHT22;1616;52.394;9.756;2023-02-26T18:37:55;3.60;1.00
3208;DHT22;1616;52.394;9.756;2023-02-26T18:40:23;3.60;1.00
3208;DHT22;1616;52.394;9.756;2023-02-26T18:42:50;3.50;1.00
3208;DHT22;1616;52.394;9.756;2023-02-26T18:45:16;3.50;1.00
3208;DHT22;1616;52.394;9.756;2023-02-26T18:47:44;3.50;1.00
3208;DHT22;1616;52.394;9.756;2023-02-26T18:50:13;3.50;1.00
3208;DHT22;1616;52.394;9.756;2023-02-26T18:52:39;3.40;1.00
3208;DHT22;1616;52.394;9.756;2023-02-26T18:55:05;3.50;1.00
3208;DHT22;1616;52.394;9.756;2023-02-26T18:57:31;3.50;1.00
3208;DHT22;1616;52.394;9.756;2023-02-26T18:59:59;3.50;1.00
3208;DHT22;1616;52.394;9.756;2023-02-26T19:02:24;3.40;1.00